Time;durP1;ratioP1;P1;durP2;ratioP2;P2;SDS_P1;SDS_P2;PMS_P1;PMS_P2;Temp;Humidity;BMP_temperature;BMP_pressure;BME280_temperature;BME280_humidity;BME280_pressure;Samples;Min_cycle;Max_cycle;Signal;HPM_P1;HPM_P2
2023/08/25 05:14:45;;;;;;;;;;;;;;;29.28;46.70;96518.97;4255615;27;10187;-61
2023/08/25 05:16:48;;;;;;;;;;;;;;;29.50;46.51;96529.75;4241028;27;5773;-60
2023/08/25 05:18:52;;;;;;;;;;;;;;;29.68;46.40;96532.47;4244365;27;5667;-61
2023/08/25 05:20:59;;;;;;;;;;;;;;;29.85;46.17;96548.78;4243730;27;5834;-62
2023/08/25 05:23:02;;;;;;;;;;;;;;;30.00;46.18;96550.19;4242902;27;5823;-61
2023/08/25 05:25:07;;;;;;;;;;;;;;;30.14;45.94;96550.84;4245885;27;5646;-62
2023/08/25 05:27:10;;;;;;;;;;;;;;;30.27;45.76;96558.00;4248772;27;5638;-62
2023/08/25 05:29:13;;;;;;;;;;;;;;;30.34;45.77;96571.94;4240223;27;5662;-64
2023/08/25 05:31:18;;;;;;;;;;;;;;;30.40;45.55;96575.28;4243669;27;5705;-66
2023/08/25 05:33:21;;;;;;;;;;;;;;;30.44;46.05;96598.03;4241316;27;5662;-66
2023/08/25 05:35:24;;;;;;;;;;;;;;;30.50;45.66;96624.03;4248506;27;5658;-68
2023/08/25 05:37:27;;;;;;;;;;;;;;;30.47;45.97;96634.78;4248522;27;5646;-65
2023/08/25 05:39:30;;;;;;;;;;;;;;;30.29;45.52;96661.28;4248767;27;5908;-65
2023/08/25 05:41:33;;;;;;;;;;;;;;;30.02;44.98;96655.06;4248712;27;5719;-70
2023/08/25 05:43:36;;;;;;;;;;;;;;;29.81;45.53;96656.81;4248678;27;5642;-70
2023/08/25 05:45:40;;;;;;;;;;;;;;;29.68;45.40;96658.56;4240361;27;5723;-65
2023/08/25 05:47:45;;;;;;;;;;;;;;;29.58;45.52;96653.44;4240120;27;5653;-68
2023/08/25 05:49:48;;;;;;;;;;;;;;;29.52;45.58;96641.06;4246012;27;5653;-71
2023/08/25 05:51:52;;;;;;;;;;;;;;;29.45;45.44;96652.44;4231583;28;5671;-68
2023/08/25 05:53:55;;;;;;;;;;;;;;;29.49;45.50;96656.13;4233209;27;5675;-64
2023/08/25 05:55:58;;;;;;;;;;;;;;;29.56;45.48;96651.03;4246135;27;5650;-67
2023/08/25 05:58:01;;;;;;;;;;;;;;;29.60;44.93;96650.38;4231352;28;5765;-70
2023/08/25 06:00:07;;;;;;;;;;;;;;;29.56;45.08;96645.59;4231419;28;5667;-65
2023/08/25 06:02:10;;;;;;;;;;;;;;;29.63;44.98;96641.56;4239952;27;5735;-66
2023/08/25 06:04:15;;;;;;;;;;;;;;;29.70;44.46;96652.81;4239022;27;5664;-71
2023/08/25 06:06:18;;;;;;;;;;;;;;;29.76;44.57;96662.41;4244704;27;5825;-64
2023/08/25 06:08:21;;;;;;;;;;;;;;;29.82;44.57;96652.97;4234437;27;5834;-67
2023/08/25 06:10:24;;;;;;;;;;;;;;;29.92;44.33;96658.09;4231136;28;5674;-72
2023/08/25 06:12:28;;;;;;;;;;;;;;;29.97;43.92;96659.84;4231205;28;5659;-69
2023/08/25 06:14:31;;;;;;;;;;;;;;;30.04;43.97;96655.53;4233009;28;5947;-69
2023/08/25 06:16:33;;;;;;;;;;;;;;;30.13;43.66;96656.34;4228096;28;5658;-69
2023/08/25 06:18:36;;;;;;;;;;;;;;;30.16;42.70;96671.25;4236709;28;5666;-70
2023/08/25 06:20:41;;;;;;;;;;;;;;;30.18;42.82;96673.66;4227731;28;5645;-69
2023/08/25 06:22:44;;;;;;;;;;;;;;;30.24;42.90;96670.47;4226134;28;5866;-68
2023/08/25 06:24:47;;;;;;;;;;;;;;;30.30;42.55;96673.81;4229495;28;5638;-67
2023/08/25 06:26:51;;;;;;;;;;;;;;;30.29;42.02;96666.75;4220378;28;5663;-72
2023/08/25 06:28:56;;;;;;;;;;;;;;;30.30;41.89;96668.34;4235405;28;5650;-70
2023/08/25 06:30:59;;;;;;;;;;;;;;;30.34;41.71;96680.22;4233685;28;5764;-66
2023/08/25 06:33:02;;;;;;;;;;;;;;;30.39;41.77;96677.31;4230489;28;5659;-69
2023/08/25 06:35:07;;;;;;;;;;;;;;;30.48;41.84;96691.75;4236295;28;6295;-68
2023/08/25 06:37:12;;;;;;;;;;;;;;;30.56;41.73;96690.91;4236364;28;5796;-62
2023/08/25 06:39:15;;;;;;;;;;;;;;;30.60;41.50;96688.34;4223065;28;5671;-71
2023/08/25 06:41:18;;;;;;;;;;;;;;;30.62;41.68;96692.34;4229154;28;5649;-72
2023/08/25 06:43:21;;;;;;;;;;;;;;;30.66;41.55;96687.88;4230348;28;5739;-67
2023/08/25 06:45:24;;;;;;;;;;;;;;;30.70;41.78;96677.94;4219057;28;5672;-64
2023/08/25 06:47:28;;;;;;;;;;;;;;;30.71;41.75;96685.00;4233730;28;5732;-70
2023/08/25 06:49:31;;;;;;;;;;;;;;;30.74;41.54;96685.47;4235273;28;5796;-68
2023/08/25 06:51:35;;;;;;;;;;;;;;;30.77;41.47;96682.88;4228825;27;5062;-73
2023/08/25 06:53:40;;;;;;;;;;;;;;;30.79;40.98;96694.25;4233761;28;5650;-68
2023/08/25 06:55:43;;;;;;;;;;;;;;;30.80;41.18;96686.88;4219001;28;5671;-70
2023/08/25 06:57:47;;;;;;;;;;;;;;;30.84;40.90;96690.56;4218971;28;5656;-61
2023/08/25 06:59:50;;;;;;;;;;;;;;;30.84;41.11;96688.63;4219780;28;5766;-61
2023/08/25 07:01:53;;;;;;;;;;;;;;;30.86;40.99;96701.94;4227271;28;5741;-60
2023/08/25 07:03:56;;;;;;;;;;;;;;;30.88;41.18;96700.50;4224870;28;5651;-60
2023/08/25 07:05:59;;;;;;;;;;;;;;;30.89;41.54;96707.56;4221527;28;5065;-61
2023/08/25 07:08:02;;;;;;;;;;;;;;;30.91;41.52;96718.94;4235965;28;5747;-61
2023/08/25 07:10:08;;;;;;;;;;;;;;;30.92;42.05;96717.84;4227257;28;5534;-61
2023/08/25 07:12:11;;;;;;;;;;;;;;;30.92;42.06;96719.72;4223416;28;5967;-61
2023/08/25 07:14:15;;;;;;;;;;;;;;;30.91;42.41;96727.13;4226773;28;5850;-61
2023/08/25 07:16:17;;;;;;;;;;;;;;;30.95;42.87;96727.28;4232224;28;5634;-62
2023/08/25 07:18:24;;;;;;;;;;;;;;;30.97;42.63;96722.31;4221568;28;5809;-62
2023/08/25 07:20:28;;;;;;;;;;;;;;;30.98;42.96;96721.97;4225067;28;5638;-62
2023/08/25 07:22:32;;;;;;;;;;;;;;;30.99;43.14;96720.03;4220262;28;5774;-62
2023/08/25 07:24:35;;;;;;;;;;;;;;;30.98;43.30;96713.00;4218561;28;5671;-61
2023/08/25 07:26:39;;;;;;;;;;;;;;;30.98;43.26;96721.19;4233910;28;5639;-63
2023/08/25 07:28:42;;;;;;;;;;;;;;;30.98;43.29;96711.06;4226982;28;6295;-62
2023/08/25 07:30:45;;;;;;;;;;;;;;;31.01;43.18;96707.66;4226691;28;6910;-62
2023/08/25 07:32:51;;;;;;;;;;;;;;;31.02;43.18;96709.25;4219005;28;5675;-62
2023/08/25 07:34:55;;;;;;;;;;;;;;;31.06;43.38;96712.16;4226326;28;5656;-62
2023/08/25 07:36:58;;;;;;;;;;;;;;;31.07;43.16;96713.75;4232906;28;5662;-62
2023/08/25 07:39:00;;;;;;;;;;;;;;;31.09;43.08;96711.50;4226649;28;5897;-62
2023/08/25 07:41:04;;;;;;;;;;;;;;;31.08;42.91;96715.38;4226746;28;6343;-62
2023/08/25 07:43:08;;;;;;;;;;;;;;;31.10;43.04;96723.22;4226693;28;5779;-62
2023/08/25 07:45:11;;;;;;;;;;;;;;;31.12;42.79;96727.22;4221965;28;5655;-63
2023/08/25 07:47:15;;;;;;;;;;;;;;;31.15;42.64;96734.78;4226597;27;5666;-62
2023/08/25 07:49:18;;;;;;;;;;;;;;;31.17;43.08;96737.97;4226331;28;5728;-62
2023/08/25 07:51:22;;;;;;;;;;;;;;;31.17;42.92;96742.63;4221202;27;5675;-62
2023/08/25 07:53:41;;;;;;;;;;;;;;;31.20;42.53;96758.38;4218241;28;5668;-62
2023/08/25 07:55:47;;;;;;;;;;;;;;;31.17;42.07;96759.81;4226401;28;5755;-74
2023/08/25 07:57:50;;;;;;;;;;;;;;;31.18;42.13;96757.88;4226374;28;5774;-74
2023/08/25 07:59:58;;;;;;;;;;;;;;;31.18;41.95;96761.41;4225990;28;5654;-74
2023/08/25 08:02:03;;;;;;;;;;;;;;;31.20;41.61;96772.84;4226079;28;5929;-74
2023/08/25 08:04:11;;;;;;;;;;;;;;;31.22;41.57;96770.59;4227443;28;5721;-74
2023/08/25 08:06:14;;;;;;;;;;;;;;;31.25;41.36;96780.84;4230010;27;5878;-74
2023/08/25 08:08:17;;;;;;;;;;;;;;;31.27;40.96;96789.53;4226336;28;5742;-74
2023/08/25 08:10:20;;;;;;;;;;;;;;;31.27;41.02;96796.94;4220705;27;5671;-74
2023/08/25 08:56:25;;;;;;;;;;;;;;;30.21;42.39;96926.56;4225669;27;10405;-69
2023/08/25 08:58:28;;;;;;;;;;;;;;;30.41;41.91;96929.50;4229465;28;5649;-69
2023/08/25 09:00:32;;;;;;;;;;;;;;;30.61;41.70;96932.78;4223848;28;5931;-69
2023/08/25 09:02:35;;;;;;;;;;;;;;;30.74;41.17;96945.50;4224514;28;5698;-69
2023/08/25 09:04:41;;;;;;;;;;;;;;;30.81;40.60;96928.66;4225550;28;5658;-69
2023/08/25 09:06:46;;;;;;;;;;;;;;;30.88;40.33;96939.88;4226379;28;5697;-69
2023/08/25 09:08:52;;;;;;;;;;;;;;;30.95;40.17;96934.75;4230071;28;7062;-70
2023/08/25 09:10:55;;;;;;;;;;;;;;;31.01;40.01;96928.00;4226707;28;5780;-70
2023/08/25 09:12:59;;;;;;;;;;;;;;;31.08;39.79;96922.06;4226837;28;5646;-69
2023/08/25 09:15:03;;;;;;;;;;;;;;;31.11;39.96;96916.75;4230909;28;5677;-69
2023/08/25 09:17:07;;;;;;;;;;;;;;;31.10;39.39;96920.59;4226601;28;5661;-70
2023/08/25 09:19:16;;;;;;;;;;;;;;;31.11;39.54;96933.13;4226081;28;5748;-70
2023/08/25 09:21:20;;;;;;;;;;;;;;;31.13;39.17;96936.31;4229628;28;5766;-69
2023/08/25 09:23:26;;;;;;;;;;;;;;;31.13;39.34;96941.00;4219424;28;5661;-69
2023/08/25 09:25:31;;;;;;;;;;;;;;;31.14;39.09;96943.41;4231687;28;5673;-70
2023/08/25 09:27:35;;;;;;;;;;;;;;;31.17;39.43;96931.03;4231379;28;5768;-69
2023/08/25 09:29:43;;;;;;;;;;;;;;;31.13;39.13;96919.16;4231178;28;5793;-69
2023/08/25 09:31:46;;;;;;;;;;;;;;;31.13;38.95;96913.69;4231302;28;6354;-69
2023/08/25 09:33:51;;;;;;;;;;;;;;;31.14;38.94;96910.63;4231456;28;5673;-70
2023/08/25 09:35:54;;;;;;;;;;;;;;;31.17;39.05;96910.00;4217741;28;6549;-69
2023/08/25 09:37:56;;;;;;;;;;;;;;;31.18;38.99;96928.00;4228032;28;5669;-69
2023/08/25 09:40:00;;;;;;;;;;;;;;;31.14;38.77;96937.94;4222129;28;7749;-69
2023/08/25 09:42:07;;;;;;;;;;;;;;;31.17;39.08;96947.44;4231262;28;5834;-69
2023/08/25 09:44:10;;;;;;;;;;;;;;;31.21;38.94;96953.88;4229226;28;5666;-70
2023/08/25 09:46:15;;;;;;;;;;;;;;;31.25;39.07;96944.69;4231200;28;5681;-70
2023/08/25 09:48:18;;;;;;;;;;;;;;;31.29;38.87;96937.47;4230370;28;5681;-68
2023/08/25 09:50:21;;;;;;;;;;;;;;;31.33;38.74;96928.63;4213831;28;5790;-69
2023/08/25 09:52:27;;;;;;;;;;;;;;;31.35;39.10;96929.91;4231017;28;5978;-69
2023/08/25 09:54:30;;;;;;;;;;;;;;;31.38;38.95;96942.13;4230850;28;5677;-69
2023/08/25 09:56:34;;;;;;;;;;;;;;;31.27;38.80;96939.75;4223826;28;5755;-69
2023/08/25 09:58:38;;;;;;;;;;;;;;;31.14;38.17;96943.41;4219785;28;5687;-69
2023/08/25 10:00:42;;;;;;;;;;;;;;;31.04;37.94;96954.66;4219669;28;5828;-71
2023/08/25 10:02:46;;;;;;;;;;;;;;;30.99;37.96;96949.34;4219751;28;5673;-70
2023/08/25 10:04:49;;;;;;;;;;;;;;;31.00;37.68;96953.69;4217535;28;5685;-69
2023/08/25 10:06:53;;;;;;;;;;;;;;;31.04;37.51;96962.84;4219359;28;5784;-69
2023/08/25 10:08:56;;;;;;;;;;;;;;;31.11;37.59;96959.63;4217171;28;5689;-69
2023/08/25 10:10:59;;;;;;;;;;;;;;;31.16;37.56;96946.63;4226319;28;5660;-69
2023/08/25 10:13:04;;;;;;;;;;;;;;;31.16;37.32;96940.38;4218555;28;5661;-69
2023/08/25 10:15:09;;;;;;;;;;;;;;;31.14;36.76;96937.13;4219358;28;5911;-69
2023/08/25 10:17:14;;;;;;;;;;;;;;;31.11;36.97;96927.66;4219266;28;5295;-68
2023/08/25 10:19:23;;;;;;;;;;;;;;;31.13;36.97;96921.88;4218680;28;5768;-69
2023/08/25 10:21:26;;;;;;;;;;;;;;;31.14;36.61;96915.28;4216235;28;5774;-69
2023/08/25 10:23:32;;;;;;;;;;;;;;;31.12;36.31;96901.16;4230268;28;5986;-70
2023/08/25 10:25:37;;;;;;;;;;;;;;;31.06;35.87;96889.63;4202729;28;5701;-69
2023/08/25 10:27:41;;;;;;;;;;;;;;;31.07;36.19;96890.41;4205674;28;5653;-70
2023/08/25 10:29:44;;;;;;;;;;;;;;;31.14;36.21;96877.88;4213852;28;5673;-70
2023/08/25 10:31:48;;;;;;;;;;;;;;;31.21;36.18;96872.75;4218183;28;5666;-69
2023/08/25 10:33:53;;;;;;;;;;;;;;;31.20;35.74;96881.28;4219127;28;5705;-70
2023/08/25 10:35:58;;;;;;;;;;;;;;;31.18;35.73;96876.09;4218940;28;5714;-70
2023/08/25 10:38:01;;;;;;;;;;;;;;;31.22;35.99;96866.16;4218944;28;5684;-69
2023/08/25 10:40:10;;;;;;;;;;;;;;;31.20;35.65;96862.97;4217720;28;5689;-69
2023/08/25 10:42:13;;;;;;;;;;;;;;;31.24;35.49;96863.91;4216933;28;5680;-69
2023/08/25 10:44:22;;;;;;;;;;;;;;;31.21;35.35;96861.81;4218730;28;5792;-69
2023/08/25 10:46:25;;;;;;;;;;;;;;;31.25;35.44;96854.56;4211736;28;6489;-68
2023/08/25 10:48:48;;;;;;;;;;;;;;;31.37;34.99;96847.63;4217446;28;6013;-65
2023/08/25 10:50:53;;;;;;;;;;;;;;;31.44;34.94;96848.75;4217242;28;5740;-63
2023/08/25 10:52:57;;;;;;;;;;;;;;;31.52;35.09;96838.94;4214750;28;5673;-64
2023/08/25 10:55:24;;;;;;;;;;;;;;;31.56;34.63;96823.47;4218065;28;5904;-64
2023/08/25 10:57:41;;;;;;;;;;;;;;;31.54;34.09;96823.81;4218351;28;5701;-65
2023/08/25 10:59:49;;;;;;;;;;;;;;;31.56;34.24;96818.81;4202203;28;5686;-65
2023/08/25 11:01:55;;;;;;;;;;;;;;;31.58;34.30;96819.28;4201711;28;5769;-65
2023/08/25 11:04:06;;;;;;;;;;;;;;;31.65;34.43;96813.31;4207250;28;5792;-65
2023/08/25 11:06:37;;;;;;;;;;;;;;;31.72;34.05;96805.41;4218745;28;5788;-65
2023/08/25 11:08:43;;;;;;;;;;;;;;;31.77;33.89;96804.44;4206462;28;5775;-65
2023/08/25 11:10:45;;;;;;;;;;;;;;;31.81;33.54;96795.25;4217473;28;5109;-65
2023/08/25 11:12:49;;;;;;;;;;;;;;;31.83;33.69;96795.75;4218425;28;5744;-65
2023/08/25 11:15:12;;;;;;;;;;;;;;;31.90;33.55;96797.13;4216126;28;6437;-65
2023/08/25 11:17:14;;;;;;;;;;;;;;;31.94;33.89;96806.28;4217105;28;5776;-65
2023/08/25 11:19:18;;;;;;;;;;;;;;;31.96;33.74;96812.22;4217353;28;5705;-65
2023/08/25 11:21:24;;;;;;;;;;;;;;;31.96;33.22;96801.28;4213104;28;5105;-65
2023/08/25 11:23:35;;;;;;;;;;;;;;;31.92;33.45;96800.34;4210449;28;5665;-65
2023/08/25 11:25:39;;;;;;;;;;;;;;;31.89;33.63;96787.34;4215091;28;5681;-65
2023/08/25 11:27:42;;;;;;;;;;;;;;;31.86;33.35;96756.81;4217566;28;5811;-65
2023/08/25 11:29:45;;;;;;;;;;;;;;;31.86;33.23;96767.75;4217553;28;5775;-65
2023/08/25 11:31:49;;;;;;;;;;;;;;;31.89;33.62;96787.34;4217228;28;5669;-65
2023/08/25 11:33:51;;;;;;;;;;;;;;;31.88;33.63;96802.13;4213676;28;5679;-65
2023/08/25 11:35:54;;;;;;;;;;;;;;;31.87;33.12;96801.34;4215715;28;5641;-65
2023/08/25 11:37:57;;;;;;;;;;;;;;;31.87;33.43;96782.19;4217018;28;5757;-65
2023/08/25 11:40:00;;;;;;;;;;;;;;;31.89;33.46;96792.81;4214351;28;5796;-65
2023/08/25 11:42:05;;;;;;;;;;;;;;;31.87;33.53;96784.94;4213571;28;5924;-64
2023/08/25 11:44:10;;;;;;;;;;;;;;;31.86;33.91;96775.13;4212648;28;5786;-65
2023/08/25 11:46:13;;;;;;;;;;;;;;;31.82;34.16;96763.25;4217766;28;6355;-65
2023/08/25 11:48:16;;;;;;;;;;;;;;;31.77;33.98;96742.38;4216446;28;5823;-65
2023/08/25 11:50:20;;;;;;;;;;;;;;;31.69;35.73;96735.00;4206545;28;5814;-65
2023/08/25 11:52:23;;;;;;;;;;;;;;;31.64;35.68;96735.22;4209426;28;5701;-65
2023/08/25 11:54:26;;;;;;;;;;;;;;;31.61;37.66;96726.88;4217711;28;5822;-65
2023/08/25 11:56:28;;;;;;;;;;;;;;;31.52;38.37;96714.06;4218093;28;5756;-64
2023/08/25 11:58:35;;;;;;;;;;;;;;;31.41;39.56;96690.19;4217657;28;5781;-64
2023/08/25 12:00:38;;;;;;;;;;;;;;;31.29;40.15;96705.34;4217777;28;5670;-65
2023/08/25 12:02:41;;;;;;;;;;;;;;;31.25;39.97;96725.44;4217745;28;5768;-65
2023/08/25 12:04:53;;;;;;;;;;;;;;;31.29;39.41;96715.47;4217808;28;5737;-65
2023/08/25 12:07:02;;;;;;;;;;;;;;;31.29;39.88;96701.81;4217817;28;5768;-64
2023/08/25 12:09:09;;;;;;;;;;;;;;;31.26;40.09;96711.47;4217765;28;5764;-64
2023/08/25 12:11:12;;;;;;;;;;;;;;;31.24;40.59;96710.97;4217930;28;5670;-64
2023/08/25 12:13:15;;;;;;;;;;;;;;;31.26;40.53;96700.53;4217644;28;5760;-64
2023/08/25 12:15:19;;;;;;;;;;;;;;;31.22;41.05;96669.53;4217555;28;5673;-64
2023/08/25 12:17:24;;;;;;;;;;;;;;;31.14;41.61;96634.84;4217472;28;5678;-65
2023/08/25 12:19:27;;;;;;;;;;;;;;;31.07;41.89;96625.59;4217403;28;5787;-65
2023/08/25 12:21:36;;;;;;;;;;;;;;;30.99;41.83;96624.50;4217566;28;5669;-65
2023/08/25 12:23:41;;;;;;;;;;;;;;;31.00;41.83;96612.47;4217634;28;5665;-65
2023/08/25 12:25:44;;;;;;;;;;;;;;;31.06;41.87;96597.50;4216178;28;5676;-65
2023/08/25 12:27:47;;;;;;;;;;;;;;;31.08;41.87;96589.78;4217344;28;5658;-65
2023/08/25 12:29:50;;;;;;;;;;;;;;;31.11;41.79;96583.66;4217551;28;5682;-65
2023/08/25 12:31:54;;;;;;;;;;;;;;;31.12;42.19;96593.44;4217221;28;5669;-65
2023/08/25 12:33:57;;;;;;;;;;;;;;;31.10;41.83;96586.72;4217601;28;5143;-67
2023/08/25 12:36:00;;;;;;;;;;;;;;;31.06;41.76;96581.13;4217415;28;5814;-66
2023/08/25 12:38:03;;;;;;;;;;;;;;;31.05;41.72;96579.53;4217326;28;5665;-66
2023/08/25 12:40:08;;;;;;;;;;;;;;;31.05;41.68;96579.53;4217600;28;5692;-65
2023/08/25 12:42:11;;;;;;;;;;;;;;;31.08;42.00;96583.53;4217514;28;5781;-64
2023/08/25 12:44:14;;;;;;;;;;;;;;;31.12;41.76;96579.00;4217264;28;5810;-66
2023/08/25 12:46:18;;;;;;;;;;;;;;;31.09;41.17;96575.00;4217301;28;5820;-66
2023/08/25 12:48:23;;;;;;;;;;;;;;;31.11;41.45;96561.81;4217501;28;5797;-64
2023/08/25 12:50:27;;;;;;;;;;;;;;;31.19;40.81;96563.72;4217354;28;5729;-64
2023/08/25 12:52:33;;;;;;;;;;;;;;;31.23;40.90;96564.66;4215525;28;6350;-64
2023/08/25 12:54:36;;;;;;;;;;;;;;;31.28;40.99;96553.53;4214122;28;5673;-64
2023/08/25 12:56:38;;;;;;;;;;;;;;;31.32;40.18;96550.13;4211964;28;5657;-64
2023/08/25 12:58:41;;;;;;;;;;;;;;;31.26;40.04;96539.44;4213947;28;5673;-64
2023/08/25 13:00:44;;;;;;;;;;;;;;;31.24;39.51;96535.41;4216943;28;5772;-62
2023/08/25 13:02:48;;;;;;;;;;;;;;;31.25;39.46;96537.81;4217254;28;6367;-64
2023/08/25 13:04:56;;;;;;;;;;;;;;;31.26;38.98;96539.44;4217002;28;5786;-64
2023/08/25 13:06:59;;;;;;;;;;;;;;;31.27;38.81;96546.47;4217006;28;5760;-64
2023/08/25 13:09:02;;;;;;;;;;;;;;;31.29;38.87;96530.56;4209413;28;5669;-64
2023/08/25 13:11:05;;;;;;;;;;;;;;;31.34;39.04;96520.56;4216981;28;5089;-65
2023/08/25 13:13:08;;;;;;;;;;;;;;;31.37;38.58;96522.63;4210742;28;5869;-65
2023/08/25 13:15:12;;;;;;;;;;;;;;;31.40;38.65;96524.69;4216706;28;5783;-65
2023/08/25 13:17:15;;;;;;;;;;;;;;;31.41;38.14;96526.28;4216242;28;5668;-64
2023/08/25 13:19:17;;;;;;;;;;;;;;;31.38;37.99;96521.50;4206687;28;5793;-64
2023/08/25 13:21:22;;;;;;;;;;;;;;;31.35;37.92;96520.22;4216042;28;5876;-66
2023/08/25 13:23:24;;;;;;;;;;;;;;;31.39;38.25;96514.91;4216416;28;5780;-70
2023/08/25 13:25:41;;;;;;;;;;;;;;;31.42;37.88;96508.78;4211131;28;5970;-70
2023/08/25 13:27:44;;;;;;;;;;;;;;;31.47;37.84;96509.34;4214491;28;5819;-70
2023/08/25 13:29:46;;;;;;;;;;;;;;;31.51;38.12;96504.03;4216794;28;5796;-69
2023/08/25 13:31:49;;;;;;;;;;;;;;;31.54;37.97;96495.97;4215741;28;5698;-71
2023/08/25 13:33:53;;;;;;;;;;;;;;;31.56;37.77;96484.69;4207443;28;5676;-70
2023/08/25 13:35:56;;;;;;;;;;;;;;;31.57;38.07;96489.81;4214999;28;5715;-69
2023/08/25 13:38:00;;;;;;;;;;;;;;;31.58;37.80;96493.34;4216772;28;5733;-68
2023/08/25 13:40:04;;;;;;;;;;;;;;;31.60;37.89;96485.63;4220020;28;5685;-68
2023/08/25 13:42:07;;;;;;;;;;;;;;;31.65;37.50;96482.69;4220103;28;5724;-68
2023/08/25 13:44:10;;;;;;;;;;;;;;;31.69;37.69;96474.59;4219384;28;5685;-70
2023/08/25 13:46:13;;;;;;;;;;;;;;;31.72;37.56;96473.94;4219352;28;5673;-69
2023/08/25 13:48:16;;;;;;;;;;;;;;;31.75;37.84;96470.56;4219561;28;5725;-70
2023/08/25 13:50:19;;;;;;;;;;;;;;;31.77;37.86;96457.34;4219593;28;5794;-70
2023/08/25 13:52:22;;;;;;;;;;;;;;;31.77;37.47;96447.22;4217729;28;5665;-68
2023/08/25 13:54:26;;;;;;;;;;;;;;;31.78;37.59;96437.88;4216088;28;5793;-66
2023/08/25 13:56:29;;;;;;;;;;;;;;;31.83;37.42;96434.94;4216340;28;5653;-63
2023/08/25 13:58:33;;;;;;;;;;;;;;;31.87;37.44;96435.06;4212767;28;5673;-62
2023/08/25 14:00:35;;;;;;;;;;;;;;;31.90;37.54;96428.13;4214417;28;5669;-62
2023/08/25 14:02:40;;;;;;;;;;;;;;;31.92;37.32;96431.31;4211499;28;5689;-64
2023/08/25 14:04:43;;;;;;;;;;;;;;;31.92;37.31;96428.56;4213797;28;5668;-64
2023/08/25 14:06:47;;;;;;;;;;;;;;;31.92;37.32;96428.56;4211547;28;5823;-64
2023/08/25 14:08:50;;;;;;;;;;;;;;;31.91;37.44;96419.56;4213108;28;5682;-64
2023/08/25 14:10:54;;;;;;;;;;;;;;;31.93;37.61;96413.75;4212225;28;5669;-64
2023/08/25 14:12:57;;;;;;;;;;;;;;;31.93;37.34;96414.56;4212480;28;5828;-64
2023/08/25 14:15:00;;;;;;;;;;;;;;;31.95;37.29;96401.38;4212531;28;5896;-65
2023/08/25 14:17:04;;;;;;;;;;;;;;;31.94;36.85;96396.22;4212366;28;5839;-65
2023/08/25 14:19:06;;;;;;;;;;;;;;;31.90;36.94;96389.84;4212481;28;5796;-65
2023/08/25 14:21:09;;;;;;;;;;;;;;;31.90;36.67;96392.56;4213467;28;5661;-65
2023/08/25 14:23:12;;;;;;;;;;;;;;;31.92;37.01;96399.28;4212471;28;5672;-65
2023/08/25 14:25:15;;;;;;;;;;;;;;;31.91;36.86;96396.91;4217194;28;5747;-66
2023/08/25 14:27:19;;;;;;;;;;;;;;;31.94;36.44;96405.25;4216250;28;5757;-65
2023/08/25 14:29:22;;;;;;;;;;;;;;;31.94;36.46;96393.47;4214428;28;5878;-65
2023/08/25 14:31:25;;;;;;;;;;;;;;;31.95;36.77;96382.22;4214779;28;5676;-65
2023/08/25 14:33:28;;;;;;;;;;;;;;;31.96;36.23;96372.88;4211920;28;5686;-65
2023/08/25 14:35:31;;;;;;;;;;;;;;;31.97;36.63;96354.56;4218292;28;5776;-66
2023/08/25 14:37:34;;;;;;;;;;;;;;;31.98;36.53;96358.88;4214577;28;5660;-65
2023/08/25 14:39:37;;;;;;;;;;;;;;;31.97;36.53;96352.63;4210563;28;5780;-66
2023/08/25 14:41:40;;;;;;;;;;;;;;;31.97;36.52;96357.28;4210294;28;5773;-65
2023/08/25 14:43:48;;;;;;;;;;;;;;;31.98;36.14;96353.41;4215452;28;6487;-65
2023/08/25 14:45:51;;;;;;;;;;;;;;;31.99;36.13;96346.81;4216288;28;6084;-65
2023/08/25 14:47:53;;;;;;;;;;;;;;;31.99;36.31;96338.59;4216837;28;5771;-66
2023/08/25 14:49:56;;;;;;;;;;;;;;;31.97;36.01;96329.94;4215253;28;5735;-64
2023/08/25 14:51:59;;;;;;;;;;;;;;;31.97;36.25;96335.41;4210509;28;5747;-64
2023/08/25 14:54:02;;;;;;;;;;;;;;;31.94;36.24;96333.34;4212509;28;5661;-65
2023/08/25 14:56:05;;;;;;;;;;;;;;;31.93;36.30;96334.50;4216835;28;5846;-65
2023/08/25 14:58:08;;;;;;;;;;;;;;;31.92;36.08;96321.97;4213414;28;5739;-66
2023/08/25 15:00:13;;;;;;;;;;;;;;;31.91;36.60;96315.69;4216418;28;5767;-65
2023/08/25 15:02:17;;;;;;;;;;;;;;;31.96;36.45;96317.44;4217021;28;5784;-65
2023/08/25 15:04:20;;;;;;;;;;;;;;;31.99;36.38;96316.72;4217099;28;5772;-65
2023/08/25 15:06:23;;;;;;;;;;;;;;;32.02;36.24;96310.56;4213001;28;5666;-66
2023/08/25 15:08:28;;;;;;;;;;;;;;;32.02;36.22;96310.56;4217124;28;5677;-66
2023/08/25 15:10:31;;;;;;;;;;;;;;;32.01;36.72;96308.97;4217337;28;5870;-66
2023/08/25 15:12:34;;;;;;;;;;;;;;;32.00;36.61;96318.31;4210555;28;5768;-65
2023/08/25 15:14:37;;;;;;;;;;;;;;;32.00;36.98;96312.84;4215940;28;5689;-67
2023/08/25 15:16:41;;;;;;;;;;;;;;;32.01;36.71;96308.97;4214845;28;5818;-65
2023/08/25 15:18:44;;;;;;;;;;;;;;;32.01;36.89;96303.50;4211017;28;5764;-65
2023/08/25 15:20:56;;;;;;;;;;;;;;;32.01;36.71;96303.50;4215498;28;6386;-65
2023/08/25 15:23:00;;;;;;;;;;;;;;;32.00;36.58;96305.44;4209445;28;5668;-65
2023/08/25 15:25:04;;;;;;;;;;;;;;;32.02;36.94;96310.56;4210694;28;5805;-64
2023/08/25 15:27:07;;;;;;;;;;;;;;;32.03;36.51;96312.16;4214295;28;5773;-65
2023/08/25 15:29:10;;;;;;;;;;;;;;;32.04;36.67;96314.53;4207883;28;5865;-65
2023/08/25 15:31:14;;;;;;;;;;;;;;;32.04;37.03;96309.06;4211863;28;6496;-64
2023/08/25 15:33:22;;;;;;;;;;;;;;;32.05;36.96;96304.41;4210400;28;5702;-64
2023/08/25 15:35:25;;;;;;;;;;;;;;;32.06;37.32;96309.56;4209008;28;5665;-64
2023/08/25 15:37:29;;;;;;;;;;;;;;;32.07;36.92;96307.63;4217026;28;5772;-64
2023/08/25 15:39:32;;;;;;;;;;;;;;;32.08;36.66;96306.47;4216819;28;5789;-66
2023/08/25 15:41:35;;;;;;;;;;;;;;;32.08;37.21;96299.06;4216937;28;5740;-66
2023/08/25 15:43:40;;;;;;;;;;;;;;;32.07;35.75;96296.69;4217092;28;5661;-66
2023/08/25 15:45:47;;;;;;;;;;;;;;;32.04;35.30;96297.34;4216796;28;5665;-66
2023/08/25 15:47:50;;;;;;;;;;;;;;;32.05;35.60;96299.75;4216673;28;5680;-66
2023/08/25 15:49:55;;;;;;;;;;;;;;;32.03;34.91;96304.75;4217113;28;5684;-66
2023/08/25 15:51:57;;;;;;;;;;;;;;;32.03;35.20;96298.50;4217031;28;5788;-66
2023/08/25 15:54:01;;;;;;;;;;;;;;;32.01;34.49;96304.31;4216413;28;5749;-67
2023/08/25 15:56:04;;;;;;;;;;;;;;;32.00;34.28;96296.44;4216351;28;7403;-67
2023/08/25 15:58:06;;;;;;;;;;;;;;;31.98;34.42;96296.00;4216512;28;5748;-66
2023/08/25 16:00:10;;;;;;;;;;;;;;;31.98;34.59;96298.75;4216557;28;5674;-66
2023/08/25 16:02:13;;;;;;;;;;;;;;;31.98;34.66;96306.94;4215919;28;5819;-67
2023/08/25 16:04:16;;;;;;;;;;;;;;;31.98;34.54;96307.72;4216576;28;5752;-66
2023/08/25 16:06:20;;;;;;;;;;;;;;;31.99;34.79;96306.59;4216219;28;5760;-68
2023/08/25 16:08:24;;;;;;;;;;;;;;;32.00;34.32;96313.66;4216319;28;5832;-68
2023/08/25 16:10:27;;;;;;;;;;;;;;;31.97;34.10;96313.56;4216567;28;5705;-68
2023/08/25 16:12:30;;;;;;;;;;;;;;;31.99;33.83;96317.53;4216425;28;5776;-69
2023/08/25 16:14:33;;;;;;;;;;;;;;;31.98;33.58;96313.19;4216838;28;5772;-68
2023/08/25 16:16:36;;;;;;;;;;;;;;;31.97;33.45;96311.59;4216416;28;5701;-69
2023/08/25 16:18:41;;;;;;;;;;;;;;;31.97;33.91;96319.00;4216410;28;5764;-68
2023/08/25 16:20:45;;;;;;;;;;;;;;;31.98;33.78;96321.41;4211260;28;5853;-68
2023/08/25 16:22:49;;;;;;;;;;;;;;;31.97;33.49;96319.00;4214472;28;6350;-67
2023/08/25 16:24:52;;;;;;;;;;;;;;;31.96;33.49;96329.16;4215789;28;6358;-66
2023/08/25 16:26:55;;;;;;;;;;;;;;;31.97;32.92;96335.41;4216392;28;5669;-67
2023/08/25 16:28:58;;;;;;;;;;;;;;;31.95;33.21;96332.22;4216270;28;5770;-67
2023/08/25 16:31:03;;;;;;;;;;;;;;;31.94;33.40;96331.44;4216119;28;5352;-67
2023/08/25 16:33:07;;;;;;;;;;;;;;;31.95;33.37;96338.50;4216213;28;5751;-67
2023/08/25 16:35:10;;;;;;;;;;;;;;;31.95;33.07;96332.22;4216124;28;5684;-67
2023/08/25 16:37:13;;;;;;;;;;;;;;;31.94;33.06;96347.84;4216091;28;6448;-67
2023/08/25 16:39:18;;;;;;;;;;;;;;;31.93;33.32;96350.88;4216597;28;5654;-67
2023/08/25 16:41:20;;;;;;;;;;;;;;;31.91;33.29;96331.31;4215805;28;7700;-66
2023/08/25 16:43:24;;;;;;;;;;;;;;;31.92;33.65;96332.91;4215747;28;6590;-65
2023/08/25 16:45:27;;;;;;;;;;;;;;;31.90;33.52;96343.38;4214612;28;5752;-66
2023/08/25 16:47:30;;;;;;;;;;;;;;;31.90;33.32;96340.66;4215079;28;5669;-68
2023/08/25 16:49:32;;;;;;;;;;;;;;;31.90;33.20;96326.97;4207776;28;5110;-68
2023/08/25 16:51:35;;;;;;;;;;;;;;;31.87;33.08;96323.00;4216303;28;5700;-68
2023/08/25 16:53:38;;;;;;;;;;;;;;;31.86;33.07;96330.41;4216018;28;5656;-67